Time;durP1;ratioP1;P1;durP2;ratioP2;P2;SDS_P1;SDS_P2;PMS_P1;PMS_P2;Temp;Humidity;BMP_temperature;BMP_pressure;BME280_temperature;BME280_humidity;BME280_pressure;Samples;Min_cycle;Max_cycle;Signal;HPM_P1;HPM_P2
2022/05/18 00:02:11;;;;;;;;;;;19.90;99.90;;;;;;5073509;28;19924;-64
2022/05/18 00:04:38;;;;;;;;;;;19.90;99.90;;;;;;5072964;28;19928;-64
2022/05/18 00:07:05;;;;;;;;;;;19.80;99.90;;;;;;5073196;28;19924;-64
2022/05/18 00:09:31;;;;;;;;;;;19.70;99.90;;;;;;5072885;28;20453;-64
2022/05/18 00:11:58;;;;;;;;;;;19.70;99.90;;;;;;5072923;28;19932;-64
2022/05/18 00:14:25;;;;;;;;;;;19.70;99.90;;;;;;5072611;28;19928;-64
2022/05/18 00:16:53;;;;;;;;;;;19.60;99.90;;;;;;5073022;28;19929;-64
2022/05/18 00:19:20;;;;;;;;;;;19.50;99.90;;;;;;5072642;28;19981;-63
2022/05/18 00:21:46;;;;;;;;;;;19.60;99.90;;;;;;5072549;28;19924;-64
2022/05/18 00:24:13;;;;;;;;;;;19.50;99.90;;;;;;5072577;28;19925;-63
2022/05/18 00:26:40;;;;;;;;;;;19.40;99.90;;;;;;5072631;28;20062;-64
2022/05/18 00:29:07;;;;;;;;;;;19.40;99.90;;;;;;5072682;28;19947;-64
2022/05/18 00:31:34;;;;;;;;;;;19.40;99.90;;;;;;5072464;28;19925;-64
2022/05/18 00:34:02;;;;;;;;;;;19.40;99.90;;;;;;5071708;28;19929;-64
2022/05/18 00:36:29;;;;;;;;;;;19.30;99.90;;;;;;5072757;28;19924;-64
2022/05/18 00:38:56;;;;;;;;;;;19.30;99.90;;;;;;5072360;28;20335;-63
2022/05/18 00:41:23;;;;;;;;;;;19.20;99.90;;;;;;5072273;28;19932;-65
2022/05/18 00:43:51;;;;;;;;;;;19.20;99.90;;;;;;5071820;28;20404;-64
2022/05/18 00:46:18;;;;;;;;;;;19.20;99.90;;;;;;5072441;28;19925;-66
2022/05/18 00:48:45;;;;;;;;;;;19.10;99.90;;;;;;5072150;28;20396;-63
2022/05/18 00:51:17;;;;;;;;;;;19.10;99.90;;;;;;5072093;28;19924;-64
2022/05/18 00:53:45;;;;;;;;;;;19.00;99.90;;;;;;5071841;28;19928;-64
2022/05/18 00:56:14;;;;;;;;;;;19.00;99.90;;;;;;5072043;28;19929;-64
2022/05/18 00:58:42;;;;;;;;;;;19.00;99.90;;;;;;5072307;28;19932;-64
2022/05/18 01:01:10;;;;;;;;;;;19.00;99.90;;;;;;5071862;28;19925;-64
2022/05/18 01:03:38;;;;;;;;;;;18.90;99.90;;;;;;5071658;28;19931;-64
2022/05/18 01:06:09;;;;;;;;;;;18.90;99.90;;;;;;5071800;28;19929;-64
2022/05/18 01:08:39;;;;;;;;;;;18.80;99.90;;;;;;5071078;28;19931;-64
2022/05/18 01:11:06;;;;;;;;;;;18.80;99.90;;;;;;5071725;28;20311;-67
2022/05/18 01:13:33;;;;;;;;;;;18.70;99.90;;;;;;5071539;28;19929;-66
2022/05/18 01:16:00;;;;;;;;;;;18.70;99.90;;;;;;5071692;28;19932;-64
2022/05/18 01:18:27;;;;;;;;;;;18.60;99.90;;;;;;5071540;28;20277;-64
2022/05/18 01:20:53;;;;;;;;;;;18.60;99.90;;;;;;5071372;28;19924;-64
2022/05/18 01:23:26;;;;;;;;;;;18.70;99.90;;;;;;5071503;28;19932;-67
2022/05/18 01:26:00;;;;;;;;;;;18.60;99.90;;;;;;5071300;28;19928;-66
2022/05/18 01:28:30;;;;;;;;;;;18.60;99.90;;;;;;5072464;28;19946;-67
2022/05/18 01:30:57;;;;;;;;;;;18.60;99.90;;;;;;5071111;28;19979;-67
2022/05/18 01:33:25;;;;;;;;;;;18.60;99.90;;;;;;5071253;28;19931;-63
2022/05/18 01:35:52;;;;;;;;;;;18.50;99.90;;;;;;5071106;28;19928;-63
2022/05/18 01:38:19;;;;;;;;;;;18.50;99.90;;;;;;5071488;28;19944;-64
2022/05/18 01:40:50;;;;;;;;;;;18.30;99.90;;;;;;5071343;28;19924;-64
2022/05/18 01:43:19;;;;;;;;;;;18.20;99.90;;;;;;5071265;28;20373;-64
2022/05/18 01:45:51;;;;;;;;;;;18.30;99.90;;;;;;5070562;28;19925;-65
2022/05/18 01:48:19;;;;;;;;;;;18.40;99.90;;;;;;5070928;28;19991;-64
2022/05/18 01:50:46;;;;;;;;;;;18.40;99.90;;;;;;5070913;28;19925;-64
2022/05/18 01:53:13;;;;;;;;;;;18.40;99.90;;;;;;5071112;28;19924;-63
2022/05/18 01:55:40;;;;;;;;;;;18.30;99.90;;;;;;5070631;28;20000;-64
2022/05/18 01:58:10;;;;;;;;;;;18.30;99.90;;;;;;5071529;28;19924;-64
2022/05/18 02:00:37;;;;;;;;;;;18.20;99.90;;;;;;5070697;28;19924;-64
2022/05/18 02:03:05;;;;;;;;;;;18.10;99.90;;;;;;5069473;28;19924;-64
2022/05/18 02:05:32;;;;;;;;;;;18.30;99.90;;;;;;5058601;28;19925;-62
2022/05/18 02:07:58;;;;;;;;;;;18.20;99.90;;;;;;5050842;28;19940;-64
2022/05/18 02:10:26;;;;;;;;;;;18.10;99.90;;;;;;5050892;28;19925;-64
2022/05/18 02:12:52;;;;;;;;;;;18.10;99.90;;;;;;5051010;28;19935;-64
2022/05/18 02:15:19;;;;;;;;;;;18.10;99.90;;;;;;5050502;28;19924;-63
2022/05/18 02:17:46;;;;;;;;;;;18.10;99.90;;;;;;5050778;28;20400;-63
2022/05/18 02:20:14;;;;;;;;;;;18.10;99.90;;;;;;5050444;28;19925;-63
2022/05/18 02:22:41;;;;;;;;;;;18.20;99.90;;;;;;5050508;28;19925;-64
2022/05/18 02:25:08;;;;;;;;;;;18.20;99.90;;;;;;5050818;28;19929;-64
2022/05/18 02:27:35;;;;;;;;;;;18.10;99.90;;;;;;5050744;28;19954;-64
2022/05/18 02:30:02;;;;;;;;;;;18.10;99.90;;;;;;5050355;28;19925;-65
2022/05/18 02:32:29;;;;;;;;;;;18.10;99.90;;;;;;5050649;28;19925;-64
2022/05/18 02:34:56;;;;;;;;;;;18.00;99.90;;;;;;5050013;28;19925;-64
2022/05/18 02:37:24;;;;;;;;;;;18.00;99.90;;;;;;5050286;28;19927;-64
2022/05/18 02:39:51;;;;;;;;;;;17.90;99.90;;;;;;5050365;28;19928;-63
2022/05/18 02:42:17;;;;;;;;;;;17.90;99.90;;;;;;5050424;28;19970;-64
2022/05/18 02:44:44;;;;;;;;;;;17.90;99.90;;;;;;5049960;28;19924;-64
2022/05/18 02:47:11;;;;;;;;;;;17.90;99.90;;;;;;5050309;28;19925;-64
2022/05/18 02:49:38;;;;;;;;;;;17.80;99.90;;;;;;5049935;28;19932;-63
2022/05/18 02:52:05;;;;;;;;;;;17.80;99.90;;;;;;5050357;28;19932;-64
2022/05/18 02:57:19;;;;;;;;;;;17.80;99.90;;;;;;5048730;28;19925;-64
2022/05/18 02:59:46;;;;;;;;;;;17.90;99.90;;;;;;5060921;28;19935;-64
2022/05/18 03:02:13;;;;;;;;;;;17.90;99.90;;;;;;5052140;28;19925;-63
2022/05/18 03:04:40;;;;;;;;;;;17.90;99.90;;;;;;5049813;28;19971;-64
2022/05/18 03:07:07;;;;;;;;;;;17.90;99.90;;;;;;5050164;28;19925;-64
2022/05/18 03:09:35;;;;;;;;;;;17.90;99.90;;;;;;5049665;28;19936;-64
2022/05/18 03:12:04;;;;;;;;;;;17.90;99.90;;;;;;5049941;28;20355;-63
2022/05/18 03:14:31;;;;;;;;;;;17.90;99.90;;;;;;5049906;28;19925;-63
2022/05/18 03:16:59;;;;;;;;;;;18.00;99.90;;;;;;5050071;28;19932;-65
2022/05/18 03:19:26;;;;;;;;;;;17.90;99.90;;;;;;5049886;28;20298;-64
2022/05/18 03:24:38;;;;;;;;;;;17.80;99.90;;;;;;5049667;28;19944;-64
2022/05/18 03:27:05;;;;;;;;;;;17.70;99.90;;;;;;5049960;28;20384;-65
2022/05/18 03:29:33;;;;;;;;;;;17.80;99.90;;;;;;5049562;28;20392;-65
2022/05/18 03:31:59;;;;;;;;;;;17.80;99.90;;;;;;5049907;28;20312;-64
2022/05/18 03:34:26;;;;;;;;;;;17.80;99.90;;;;;;5049450;28;20343;-64
2022/05/18 03:36:53;;;;;;;;;;;17.80;99.90;;;;;;5049672;28;19932;-65
2022/05/18 03:39:19;;;;;;;;;;;17.80;99.90;;;;;;5049605;28;19929;-64
2022/05/18 03:41:48;;;;;;;;;;;17.80;99.90;;;;;;5050089;28;19954;-64
2022/05/18 03:44:15;;;;;;;;;;;17.80;99.90;;;;;;5049424;28;19932;-65
2022/05/18 03:46:42;;;;;;;;;;;17.80;99.90;;;;;;5049726;28;19925;-64
2022/05/18 03:49:09;;;;;;;;;;;17.80;99.90;;;;;;5049620;28;19932;-64
2022/05/18 03:51:37;;;;;;;;;;;17.80;99.90;;;;;;5049517;28;20316;-64
2022/05/18 03:54:04;;;;;;;;;;;17.80;99.90;;;;;;5049530;28;19928;-65
2022/05/18 03:56:30;;;;;;;;;;;17.80;99.90;;;;;;5049781;28;19932;-65
2022/05/18 03:59:00;;;;;;;;;;;17.80;99.90;;;;;;5049321;28;19925;-64
2022/05/18 04:01:27;;;;;;;;;;;17.90;99.90;;;;;;5049489;28;19931;-64
2022/05/18 04:03:54;;;;;;;;;;;17.90;99.90;;;;;;5049280;28;19928;-64
2022/05/18 04:06:21;;;;;;;;;;;17.90;99.90;;;;;;5049431;28;20392;-65
2022/05/18 04:08:48;;;;;;;;;;;17.80;99.90;;;;;;5051912;28;20339;-63
2022/05/18 04:11:15;;;;;;;;;;;17.70;99.90;;;;;;5053288;28;20008;-64
2022/05/18 04:13:42;;;;;;;;;;;17.70;99.90;;;;;;5052923;28;20388;-65
2022/05/18 04:16:10;;;;;;;;;;;17.90;99.90;;;;;;5053047;28;19931;-65
2022/05/18 04:18:37;;;;;;;;;;;17.90;99.90;;;;;;5052873;28;19975;-65
2022/05/18 04:21:06;;;;;;;;;;;17.90;99.90;;;;;;5052804;28;19924;-65
2022/05/18 04:23:33;;;;;;;;;;;17.90;99.90;;;;;;5052820;28;19928;-64
2022/05/18 04:26:00;;;;;;;;;;;18.00;99.90;;;;;;5053089;28;19947;-65
2022/05/18 04:28:27;;;;;;;;;;;18.10;99.90;;;;;;5052915;28;19925;-65
2022/05/18 04:30:54;;;;;;;;;;;18.10;99.90;;;;;;5052725;28;19995;-65
2022/05/18 04:33:23;;;;;;;;;;;18.20;99.90;;;;;;5052797;28;20347;-65
2022/05/18 04:35:50;;;;;;;;;;;18.20;99.90;;;;;;5052475;28;19925;-65
2022/05/18 04:38:17;;;;;;;;;;;18.20;99.90;;;;;;5053047;28;19925;-65
2022/05/18 04:40:44;;;;;;;;;;;18.20;99.90;;;;;;5052366;28;19928;-65
2022/05/18 04:43:11;;;;;;;;;;;18.30;99.90;;;;;;5052577;28;20020;-64
2022/05/18 04:45:44;;;;;;;;;;;18.30;99.90;;;;;;5052328;28;19925;-64
2022/05/18 04:48:12;;;;;;;;;;;18.30;99.90;;;;;;5053016;28;19924;-65
2022/05/18 04:50:40;;;;;;;;;;;18.20;99.90;;;;;;5052028;28;19929;-65
2022/05/18 04:53:07;;;;;;;;;;;18.20;99.90;;;;;;5052503;28;19924;-64
2022/05/18 04:55:33;;;;;;;;;;;18.20;99.90;;;;;;5051960;28;19947;-65
2022/05/18 04:58:00;;;;;;;;;;;18.20;99.90;;;;;;5052883;28;19932;-65
2022/05/18 05:00:27;;;;;;;;;;;18.20;99.90;;;;;;5052120;28;19931;-65
2022/05/18 05:02:57;;;;;;;;;;;18.30;99.90;;;;;;5059863;28;19951;-65
2022/05/18 05:05:24;;;;;;;;;;;18.40;99.90;;;;;;5051677;28;19929;-65
2022/05/18 05:07:52;;;;;;;;;;;18.60;99.90;;;;;;5054947;28;19928;-66
2022/05/18 05:10:19;;;;;;;;;;;18.80;99.90;;;;;;5063053;28;19978;-66
2022/05/18 05:12:46;;;;;;;;;;;18.90;99.90;;;;;;5051981;28;19925;-65
2022/05/18 05:15:13;;;;;;;;;;;19.00;99.90;;;;;;5051712;28;19929;-65
2022/05/18 05:17:40;;;;;;;;;;;19.20;99.90;;;;;;5051942;28;20293;-65
2022/05/18 05:20:07;;;;;;;;;;;19.30;99.90;;;;;;5060261;28;20342;-65
2022/05/18 05:22:34;;;;;;;;;;;19.50;99.90;;;;;;5070963;28;19932;-66
2022/05/18 05:25:02;;;;;;;;;;;19.70;99.90;;;;;;5062738;28;19924;-65
2022/05/18 05:27:29;;;;;;;;;;;19.90;99.90;;;;;;5071333;28;19928;-65
2022/05/18 05:29:56;;;;;;;;;;;20.20;99.90;;;;;;5071151;28;19925;-66
2022/05/18 05:32:25;;;;;;;;;;;20.40;99.90;;;;;;5071203;28;19966;-65
2022/05/18 05:34:52;;;;;;;;;;;20.60;99.90;;;;;;5070952;28;19925;-65
2022/05/18 05:37:18;;;;;;;;;;;20.70;99.90;;;;;;5060618;28;19925;-65
2022/05/18 05:39:45;;;;;;;;;;;20.80;99.90;;;;;;5050762;28;20362;-65
2022/05/18 05:42:13;;;;;;;;;;;20.90;99.90;;;;;;5051246;28;19932;-66
2022/05/18 05:44:40;;;;;;;;;;;21.00;99.90;;;;;;5050621;28;19925;-65
2022/05/18 05:47:08;;;;;;;;;;;21.00;99.90;;;;;;5050966;28;19928;-65
2022/05/18 05:49:34;;;;;;;;;;;21.10;99.90;;;;;;5050603;28;20019;-65
2022/05/18 05:52:01;;;;;;;;;;;21.10;99.90;;;;;;5051122;28;20046;-66
2022/05/18 05:54:28;;;;;;;;;;;21.20;99.90;;;;;;5050237;28;19931;-65
2022/05/18 05:56:55;;;;;;;;;;;21.20;99.90;;;;;;5050768;28;19995;-66
2022/05/18 05:59:23;;;;;;;;;;;21.20;99.90;;;;;;5052172;28;20320;-65
2022/05/18 06:01:50;;;;;;;;;;;21.30;99.90;;;;;;5086733;28;19947;-68
2022/05/18 06:04:17;;;;;;;;;;;21.30;99.90;;;;;;5066546;28;19928;-65
2022/05/18 06:06:44;;;;;;;;;;;21.40;99.90;;;;;;5070890;28;19924;-65
2022/05/18 06:09:11;;;;;;;;;;;21.60;99.90;;;;;;5069661;28;19928;-65
2022/05/18 06:11:38;;;;;;;;;;;21.70;99.90;;;;;;5059952;28;20331;-65
2022/05/18 06:14:05;;;;;;;;;;;21.70;99.90;;;;;;5065640;28;19925;-65
2022/05/18 06:16:33;;;;;;;;;;;21.80;99.90;;;;;;5070366;28;20342;-65
2022/05/18 06:19:01;;;;;;;;;;;21.90;99.90;;;;;;5070165;28;20338;-66
2022/05/18 06:21:27;;;;;;;;;;;21.90;99.90;;;;;;5086691;28;19964;-65
2022/05/18 06:23:54;;;;;;;;;;;22.00;99.90;;;;;;5050418;28;19929;-66
2022/05/18 06:26:21;;;;;;;;;;;22.00;99.90;;;;;;5084006;28;19932;-66
2022/05/18 06:28:48;;;;;;;;;;;22.00;99.90;;;;;;5083675;28;19936;-66
2022/05/18 06:31:15;;;;;;;;;;;22.10;99.90;;;;;;5083624;28;19933;-66
2022/05/18 06:33:43;;;;;;;;;;;22.10;99.90;;;;;;5083431;28;19951;-65
2022/05/18 06:36:10;;;;;;;;;;;22.10;99.90;;;;;;5049767;28;19928;-65
2022/05/18 06:38:36;;;;;;;;;;;22.20;99.90;;;;;;5083747;28;19928;-66
2022/05/18 06:43:48;;;;;;;;;;;22.30;99.90;;;;;;5049675;28;19953;-66
2022/05/18 06:46:14;;;;;;;;;;;22.50;99.90;;;;;;5083570;28;19982;-66
2022/05/18 06:48:43;;;;;;;;;;;22.70;99.90;;;;;;5083311;28;19925;-66
2022/05/18 06:51:10;;;;;;;;;;;22.70;99.90;;;;;;5050085;28;20285;-65
2022/05/18 06:53:38;;;;;;;;;;;22.70;99.90;;;;;;5083177;28;20354;-65
2022/05/18 06:56:05;;;;;;;;;;;22.70;99.90;;;;;;5050972;28;19924;-65
2022/05/18 06:58:32;;;;;;;;;;;22.80;99.90;;;;;;5083332;28;20384;-66
2022/05/18 07:01:01;;;;;;;;;;;22.80;99.90;;;;;;5083605;28;19940;-66
2022/05/18 07:03:28;;;;;;;;;;;22.90;99.90;;;;;;5083412;28;20412;-66
2022/05/18 07:05:56;;;;;;;;;;;23.00;99.90;;;;;;5049860;28;19932;-66
2022/05/18 07:08:23;;;;;;;;;;;23.10;99.90;;;;;;5083335;28;19956;-66
2022/05/18 07:10:49;;;;;;;;;;;23.10;99.90;;;;;;5050522;28;19979;-66
2022/05/18 07:13:17;;;;;;;;;;;23.20;99.90;;;;;;5050963;28;19956;-66
2022/05/18 07:15:44;;;;;;;;;;;23.30;99.90;;;;;;5049181;28;19931;-66
2022/05/18 07:18:10;;;;;;;;;;;23.40;99.90;;;;;;5049528;28;20445;-66
2022/05/18 07:20:37;;;;;;;;;;;23.50;99.90;;;;;;5050673;28;19929;-66
2022/05/18 07:23:05;;;;;;;;;;;23.60;99.90;;;;;;5049351;28;19964;-66
2022/05/18 07:25:32;;;;;;;;;;;23.70;99.90;;;;;;5062644;28;20418;-64
2022/05/18 07:27:58;;;;;;;;;;;23.80;99.90;;;;;;5058194;28;19931;-65
2022/05/18 07:30:25;;;;;;;;;;;23.90;99.90;;;;;;5064586;28;20395;-65
2022/05/18 07:32:52;;;;;;;;;;;24.00;99.90;;;;;;5069438;28;20021;-66
2022/05/18 07:35:18;;;;;;;;;;;24.10;99.90;;;;;;5056786;28;20106;-66
2022/05/18 07:37:45;;;;;;;;;;;24.10;99.90;;;;;;5063363;28;19925;-66
2022/05/18 07:40:13;;;;;;;;;;;24.10;99.90;;;;;;5069038;28;20399;-66
2022/05/18 07:42:40;;;;;;;;;;;24.20;99.90;;;;;;5070004;28;19971;-66
2022/05/18 07:45:07;;;;;;;;;;;24.30;99.90;;;;;;5072837;28;19971;-65
2022/05/18 07:47:34;;;;;;;;;;;24.40;99.90;;;;;;5074765;28;19924;-66
2022/05/18 07:50:00;;;;;;;;;;;24.50;99.90;;;;;;5074079;28;19956;-66
2022/05/18 07:52:27;;;;;;;;;;;24.70;99.90;;;;;;5073034;28;19968;-66
2022/05/18 07:54:54;;;;;;;;;;;24.80;99.90;;;;;;5073185;28;20015;-65
2022/05/18 07:57:22;;;;;;;;;;;24.90;99.90;;;;;;5072874;28;19929;-66
2022/05/18 07:59:48;;;;;;;;;;;25.00;99.90;;;;;;5070062;28;19975;-66
2022/05/18 08:02:15;;;;;;;;;;;25.10;99.90;;;;;;5065202;28;19925;-65
2022/05/18 08:04:42;;;;;;;;;;;25.20;99.90;;;;;;5060973;28;19925;-66
2022/05/18 08:07:09;;;;;;;;;;;25.20;99.90;;;;;;5059086;28;20285;-66
2022/05/18 08:15:05;;;;;;;;;;;25.20;99.90;;;;;;5066563;28;20028;-66
2022/05/18 08:15:08;;;;;;;;;;;25.40;99.90;;;;;;5062085;28;20019;-66
2022/05/18 08:17:35;;;;;;;;;;;25.60;99.90;;;;;;5058357;28;19928;-66
2022/05/18 08:20:04;;;;;;;;;;;25.70;99.90;;;;;;5064706;28;19929;-65
2022/05/18 08:22:30;;;;;;;;;;;25.80;99.90;;;;;;5081315;28;20399;-66
2022/05/18 08:24:57;;;;;;;;;;;25.90;99.90;;;;;;5064032;28;19982;-66
2022/05/18 08:27:25;;;;;;;;;;;26.00;99.90;;;;;;5052316;28;19964;-64
2022/05/18 08:29:51;;;;;;;;;;;26.20;99.90;;;;;;5053153;28;19986;-64
2022/05/18 08:32:18;;;;;;;;;;;26.30;99.90;;;;;;5052478;28;19928;-64
2022/05/18 08:34:45;;;;;;;;;;;26.40;99.90;;;;;;5051960;28;20372;-65
2022/05/18 08:37:11;;;;;;;;;;;26.40;99.90;;;;;;5052117;28;19972;-65
2022/05/18 08:39:38;;;;;;;;;;;26.50;99.90;;;;;;5063921;28;19928;-66
2022/05/18 08:42:05;;;;;;;;;;;26.60;99.90;;;;;;5072448;28;20400;-65
2022/05/18 08:44:34;;;;;;;;;;;26.60;99.90;;;;;;5073482;28;20014;-65
2022/05/18 08:47:09;;;;;;;;;;;26.80;99.90;;;;;;5072557;28;20399;-64
2022/05/18 08:49:40;;;;;;;;;;;26.90;99.90;;;;;;5072360;28;20015;-66
2022/05/18 08:52:14;;;;;;;;;;;27.00;99.90;;;;;;5072443;28;19936;-65
2022/05/18 08:54:47;;;;;;;;;;;27.10;99.90;;;;;;5073618;28;20019;-66
2022/05/18 08:57:18;;;;;;;;;;;27.10;99.90;;;;;;5061151;28;20025;-65
2022/05/18 08:59:48;;;;;;;;;;;27.20;99.90;;;;;;5053463;28;19975;-66
2022/05/18 09:02:16;;;;;;;;;;;27.40;99.90;;;;;;5072261;28;20447;-65
2022/05/18 09:04:46;;;;;;;;;;;27.50;99.90;;;;;;5072403;28;19963;-65
2022/05/18 09:07:16;;;;;;;;;;;27.60;99.90;;;;;;5073010;28;19925;-64
2022/05/18 09:12:28;;;;;;;;;;;27.70;99.90;;;;;;5073945;28;20409;-64
2022/05/18 09:14:56;;;;;;;;;;;27.80;99.90;;;;;;5072102;28;19964;-65
2022/05/18 09:17:25;;;;;;;;;;;27.90;99.90;;;;;;5072444;28;20322;-65
2022/05/18 09:19:57;;;;;;;;;;;28.10;99.90;;;;;;5057533;28;19964;-64
2022/05/18 09:22:29;;;;;;;;;;;28.30;99.90;;;;;;5063666;28;19955;-65
2022/05/18 09:25:02;;;;;;;;;;;28.40;99.90;;;;;;5054817;28;20517;-62
2022/05/18 09:27:45;;;;;;;;;;;28.40;99.90;;;;;;5064796;28;19924;-65
2022/05/18 09:30:16;;;;;;;;;;;28.40;99.90;;;;;;5064396;28;19964;-66
2022/05/18 09:32:51;;;;;;;;;;;28.60;99.90;;;;;;5061396;28;19924;-62
2022/05/18 09:35:30;;;;;;;;;;;28.80;99.90;;;;;;5068559;28;19963;-64
2022/05/18 09:38:00;;;;;;;;;;;28.80;99.90;;;;;;5053309;28;19925;-64
2022/05/18 09:40:30;;;;;;;;;;;28.60;99.90;;;;;;5051938;28;19932;-64
2022/05/18 09:43:00;;;;;;;;;;;28.30;99.90;;;;;;5052055;28;20461;-64
2022/05/18 09:45:31;;;;;;;;;;;28.20;99.90;;;;;;5051856;28;20023;-64
2022/05/18 09:48:00;;;;;;;;;;;28.30;99.90;;;;;;5056704;28;19924;-65
2022/05/18 09:50:27;;;;;;;;;;;28.50;99.90;;;;;;5056002;28;19940;-65
2022/05/18 09:52:54;;;;;;;;;;;28.50;99.90;;;;;;5051834;28;19974;-65
2022/05/18 09:55:22;;;;;;;;;;;28.40;99.90;;;;;;5051472;28;20071;-65
2022/05/18 09:57:52;;;;;;;;;;;28.30;99.90;;;;;;5051659;28;19929;-64
2022/05/18 10:00:20;;;;;;;;;;;28.30;99.90;;;;;;5051868;28;19925;-65
2022/05/18 10:08:21;;;;;;;;;;;28.20;99.90;;;;;;5056253;28;20518;-65
2022/05/18 10:10:53;;;;;;;;;;;28.20;99.90;;;;;;5064151;28;19974;-66
2022/05/18 10:13:24;;;;;;;;;;;28.10;99.90;;;;;;5070822;28;19978;-66
2022/05/18 10:16:00;;;;;;;;;;;28.30;99.90;;;;;;5070499;28;19924;-66
2022/05/18 10:18:34;;;;;;;;;;;28.30;99.90;;;;;;5070601;28;19924;-66
2022/05/18 10:21:02;;;;;;;;;;;28.30;99.90;;;;;;5069908;28;19924;-66
2022/05/18 10:23:34;;;;;;;;;;;28.20;99.90;;;;;;5057710;28;19932;-65
2022/05/18 10:26:01;;;;;;;;;;;28.20;99.90;;;;;;5066032;28;19978;-66
2022/05/18 10:28:30;;;;;;;;;;;28.30;99.90;;;;;;5061731;28;19928;-66
2022/05/18 10:30:58;;;;;;;;;;;28.50;99.90;;;;;;5070212;28;19932;-65
2022/05/18 10:33:31;;;;;;;;;;;28.60;99.90;;;;;;5070090;28;19932;-64
2022/05/18 10:36:07;;;;;;;;;;;28.60;99.90;;;;;;5047050;22;19925;-66
2022/05/18 10:38:35;;;;;;;;;;;28.70;99.90;;;;;;5004144;28;20393;-66
2022/05/18 10:41:12;;;;;;;;;;;28.70;99.90;;;;;;5014013;28;19925;-72
2022/05/18 10:43:39;;;;;;;;;;;28.70;99.90;;;;;;5029927;28;19968;-66
2022/05/18 10:46:09;;;;;;;;;;;28.80;99.90;;;;;;5030066;28;19968;-66
2022/05/18 10:48:36;;;;;;;;;;;29.00;99.90;;;;;;5029627;28;19972;-66
2022/05/18 10:51:07;;;;;;;;;;;29.10;99.90;;;;;;5030980;28;19972;-66
2022/05/18 10:53:35;;;;;;;;;;;29.20;99.90;;;;;;5029694;28;20308;-66
2022/05/18 10:56:05;;;;;;;;;;;29.40;99.90;;;;;;5030014;28;20312;-66
2022/05/18 10:58:33;;;;;;;;;;;29.60;99.90;;;;;;5029759;28;19925;-66
2022/05/18 11:01:02;;;;;;;;;;;29.70;99.90;;;;;;5029824;28;19926;-66
2022/05/18 11:03:32;;;;;;;;;;;30.00;99.90;;;;;;5029698;28;20293;-65
2022/05/18 11:06:02;;;;;;;;;;;30.10;99.90;;;;;;5029523;28;19925;-66
2022/05/18 11:08:31;;;;;;;;;;;30.30;99.90;;;;;;5029878;28;19929;-66
2022/05/18 11:11:00;;;;;;;;;;;30.60;99.90;;;;;;5022962;28;19932;-66
2022/05/18 11:13:32;;;;;;;;;;;30.80;99.90;;;;;;5009899;28;20360;-65
2022/05/18 11:16:04;;;;;;;;;;;30.90;99.90;;;;;;5010114;28;19926;-66
2022/05/18 11:18:35;;;;;;;;;;;31.20;99.90;;;;;;5011853;28;19926;-66
2022/05/18 11:21:05;;;;;;;;;;;31.00;99.90;;;;;;5013826;28;19988;-66
2022/05/18 11:23:40;;;;;;;;;;;31.30;99.90;;;;;;5013980;28;19948;-66
2022/05/18 11:26:12;;;;;;;;;;;31.50;99.90;;;;;;5013883;28;19926;-66
2022/05/18 11:28:44;;;;;;;;;;;31.80;99.90;;;;;;5013861;28;20044;-66
2022/05/18 11:31:30;;;;;;;;;;;31.90;99.90;;;;;;5013551;28;19926;-66
2022/05/18 11:34:02;;;;;;;;;;;32.50;99.90;;;;;;5013921;28;19976;-66
2022/05/18 11:36:32;;;;;;;;;;;33.40;99.90;;;;;;5013874;28;19929;-67
2022/05/18 11:39:04;;;;;;;;;;;34.30;99.90;;;;;;5013407;28;19990;-66
2022/05/18 11:41:37;;;;;;;;;;;34.90;99.90;;;;;;5013501;28;19933;-66
2022/05/18 11:44:05;;;;;;;;;;;34.90;99.90;;;;;;5013574;28;19932;-66
2022/05/18 11:46:38;;;;;;;;;;;35.80;99.90;;;;;;5013664;28;20012;-66
2022/05/18 11:49:11;;;;;;;;;;;37.00;99.90;;;;;;5012965;28;19926;-66
2022/05/18 11:51:41;;;;;;;;;;;38.30;99.90;;;;;;5013535;28;19931;-66
2022/05/18 11:54:14;;;;;;;;;;;39.10;99.90;;;;;;5012973;28;19933;-66
2022/05/18 11:56:46;;;;;;;;;;;38.60;99.90;;;;;;5013774;28;19933;-66
2022/05/18 11:59:29;;;;;;;;;;;38.90;99.90;;;;;;5012728;28;19941;-66
2022/05/18 12:02:01;;;;;;;;;;;39.90;99.90;;;;;;5013222;28;19968;-66
2022/05/18 12:04:47;;;;;;;;;;;39.60;99.90;;;;;;5013869;28;19925;-66
2022/05/18 12:07:25;;;;;;;;;;;40.10;99.90;;;;;;5013386;28;19925;-67
2022/05/18 12:10:03;;;;;;;;;;;41.40;99.90;;;;;;5012964;28;20301;-67
2022/05/18 12:12:35;;;;;;;;;;;41.00;99.90;;;;;;4994266;28;19932;-66
2022/05/18 12:15:07;;;;;;;;;;;41.20;99.90;;;;;;4993066;28;19926;-66
2022/05/18 12:17:37;;;;;;;;;;;41.00;99.90;;;;;;4993486;28;19925;-66
2022/05/18 12:20:08;;;;;;;;;;;40.50;99.90;;;;;;4993083;28;19933;-66
2022/05/18 12:22:36;;;;;;;;;;;39.80;99.90;;;;;;4993415;28;20364;-66
2022/05/18 12:25:06;;;;;;;;;;;38.50;99.90;;;;;;4993175;28;19926;-73
2022/05/18 12:27:33;;;;;;;;;;;37.50;99.90;;;;;;4993744;28;19964;-67
2022/05/18 12:30:01;;;;;;;;;;;36.60;99.90;;;;;;4992563;28;20049;-67
2022/05/18 12:32:28;;;;;;;;;;;35.70;99.90;;;;;;4993448;28;19925;-67
2022/05/18 12:34:58;;;;;;;;;;;36.30;99.90;;;;;;4992879;28;19925;-66
2022/05/18 12:37:30;;;;;;;;;;;37.80;99.90;;;;;;4993430;28;19926;-66
2022/05/18 12:40:08;;;;;;;;;;;38.10;99.90;;;;;;4992778;28;19926;-66
2022/05/18 12:42:35;;;;;;;;;;;38.40;99.90;;;;;;4993434;28;19937;-66
2022/05/18 12:45:04;;;;;;;;;;;38.60;99.90;;;;;;4992643;28;19972;-66
2022/05/18 12:47:41;;;;;;;;;;;39.00;99.90;;;;;;4992916;28;19929;-66
2022/05/18 12:50:12;;;;;;;;;;;39.30;99.90;;;;;;4992654;28;20286;-66
2022/05/18 12:52:40;;;;;;;;;;;39.50;99.90;;;;;;4993594;28;20360;-66
2022/05/18 12:55:19;;;;;;;;;;;39.20;99.90;;;;;;4992653;28;19926;-66
2022/05/18 12:57:50;;;;;;;;;;;38.20;99.90;;;;;;4992733;28;20325;-65
2022/05/18 13:00:32;;;;;;;;;;;38.50;99.90;;;;;;4992597;28;19972;-66
2022/05/18 13:03:02;;;;;;;;;;;39.10;99.90;;;;;;4990198;28;19926;-65
2022/05/18 13:05:31;;;;;;;;;;;38.50;99.90;;;;;;4992396;28;20404;-66
2022/05/18 13:08:03;;;;;;;;;;;37.80;99.90;;;;;;4992959;28;19929;-69
2022/05/18 13:10:33;;;;;;;;;;;38.80;99.90;;;;;;4995336;28;20294;-68
2022/05/18 13:13:01;;;;;;;;;;;38.60;99.90;;;;;;5012228;28;19931;-66
2022/05/18 13:15:52;;;;;;;;;;;38.60;99.90;;;;;;5012046;28;20356;-65
2022/05/18 13:18:21;;;;;;;;;;;38.90;99.90;;;;;;5012110;28;19925;-66
2022/05/18 13:20:53;;;;;;;;;;;39.30;99.90;;;;;;5012099;28;19925;-68
2022/05/18 13:23:27;;;;;;;;;;;39.60;99.90;;;;;;5012120;28;19929;-66
2022/05/18 13:25:56;;;;;;;;;;;39.60;99.90;;;;;;5011675;28;19925;-67
2022/05/18 13:28:24;;;;;;;;;;;39.20;99.90;;;;;;5011968;28;19972;-66
2022/05/18 13:30:52;;;;;;;;;;;38.60;99.90;;;;;;5011639;28;20032;-66
2022/05/18 13:33:20;;;;;;;;;;;38.80;99.90;;;;;;5013017;28;19926;-68
2022/05/18 13:35:47;;;;;;;;;;;38.90;99.90;;;;;;5011273;28;19945;-68
2022/05/18 13:38:17;;;;;;;;;;;38.70;99.90;;;;;;5026155;28;19955;-65
2022/05/18 13:40:46;;;;;;;;;;;37.90;99.90;;;;;;5029219;28;19960;-65
2022/05/18 13:43:15;;;;;;;;;;;37.80;99.90;;;;;;5030625;28;19932;-66
2022/05/18 13:45:44;;;;;;;;;;;37.90;99.90;;;;;;5032063;28;19968;-65
2022/05/18 13:48:12;;;;;;;;;;;37.70;99.60;;;;;;5030552;28;19924;-69
2022/05/18 13:50:41;;;;;;;;;;;37.90;99.90;;;;;;5030056;28;20389;-66
2022/05/18 13:53:10;;;;;;;;;;;38.20;99.90;;;;;;5030735;28;19929;-66
2022/05/18 13:55:39;;;;;;;;;;;37.80;99.70;;;;;;5030805;28;20023;-66
2022/05/18 13:58:08;;;;;;;;;;;37.30;99.90;;;;;;5031012;28;19933;-66
2022/05/18 14:00:38;;;;;;;;;;;37.20;99.90;;;;;;5030590;28;19925;-65
2022/05/18 14:03:06;;;;;;;;;;;36.80;99.90;;;;;;5030871;28;19924;-68
2022/05/18 14:05:34;;;;;;;;;;;36.40;99.90;;;;;;5024364;28;20012;-65
2022/05/18 14:08:02;;;;;;;;;;;35.90;99.90;;;;;;5016556;28;19932;-65
2022/05/18 14:10:28;;;;;;;;;;;36.00;99.90;;;;;;5002599;28;19937;-68
2022/05/18 14:12:57;;;;;;;;;;;35.90;99.90;;;;;;5020560;28;19931;-68
2022/05/18 14:15:24;;;;;;;;;;;36.00;99.90;;;;;;5020698;28;20343;-68
2022/05/18 14:17:54;;;;;;;;;;;36.10;99.90;;;;;;5030132;28;19926;-67
2022/05/18 14:20:24;;;;;;;;;;;36.20;99.90;;;;;;5030464;28;19932;-67
2022/05/18 14:22:53;;;;;;;;;;;36.30;99.90;;;;;;5030397;28;19925;-68
2022/05/18 14:25:23;;;;;;;;;;;36.00;99.90;;;;;;5030387;28;19929;-68
2022/05/18 14:27:53;;;;;;;;;;;35.50;99.90;;;;;;5030251;28;20355;-67
2022/05/18 14:30:20;;;;;;;;;;;34.90;99.90;;;;;;5024523;28;19931;-68
2022/05/18 14:32:48;;;;;;;;;;;34.60;99.90;;;;;;5030198;28;20355;-67
2022/05/18 14:35:19;;;;;;;;;;;34.60;99.90;;;;;;5024875;28;19929;-68
2022/05/18 14:37:47;;;;;;;;;;;35.20;99.90;;;;;;5030123;28;19925;-68
2022/05/18 14:40:15;;;;;;;;;;;37.00;99.90;;;;;;5030021;28;19929;-68
2022/05/18 14:42:48;;;;;;;;;;;38.00;99.90;;;;;;5030056;28;19987;-67
2022/05/18 14:45:20;;;;;;;;;;;39.10;99.90;;;;;;5027878;28;19925;-68